CheckWX is a tool to help pilots better visualize weather data.  It is not intended as a substitute for an official pre-flight weather briefing.

04:17:22 UTC

KCBM METAR
Columbus AFB Airport
Columbus, Mississippi, USA
Current

21 mins ago

KCBM 250356Z AUTO 17004KT 10SM BKN180 19/15 A2990 RMK AO2 SLP126 T01870154 $
Observed
Apr-25 @ 03:56 UTC
Wind
  • 170° at 4 KTS
Visibility
10 SM
Flight Rules
VFR
Cloud Levels
  • Broken at 18,000' AGL
Temperature
19°C / 66°F
Dewpoint
15°C / 59°F
Humidity
78%
Altimeter
29.9" Hg
Pressure
1012.52 hPa
Previous

1 hour ago

KCBM 250256Z AUTO 16003KT 10SM SCT140 20/15 A2990 RMK AO2 SLP126 60000 T02020154 53007 $
Observed
Apr-25 @ 02:56 UTC
Wind
  • 160° at 3 KTS
Visibility
10 SM
Flight Rules
VFR
Cloud Levels
  • Scattered at 14,000' AGL
Temperature
20°C / 68°F
Dewpoint
15°C / 59°F
Humidity
73%
Altimeter
29.9" Hg
Pressure
1012.52 hPa
Previous

2 hours ago

KCBM 250156Z AUTO 19004KT 10SM FEW190 21/14 A2989 RMK AO2 DZB14E23 SLP123 P0000 T02080137 $
Observed
Apr-25 @ 01:56 UTC
Wind
  • 190° at 4 KTS
Visibility
10 SM
Flight Rules
VFR
Cloud Levels
  • Few at 19,000' AGL
Temperature
21°C / 70°F
Dewpoint
14°C / 57°F
Humidity
64%
Altimeter
29.89" Hg
Pressure
1012.22 hPa
Current Rain
0.01"